createdAt,value
2019-02-21T00:00:57.811Z,1006.64
2019-02-21T00:01:57.905Z,1006.61
2019-02-21T00:02:57.793Z,1006.65
2019-02-21T00:03:57.786Z,1006.68
2019-02-21T00:04:57.767Z,1006.68
2019-02-21T00:05:57.755Z,1006.70
2019-02-21T00:06:57.765Z,1006.74
2019-02-21T00:07:57.821Z,1006.72
2019-02-21T00:08:57.775Z,1006.72
2019-02-21T00:09:57.727Z,1006.73
2019-02-21T00:10:57.713Z,1006.70
2019-02-21T00:11:57.690Z,1006.74
2019-02-21T00:12:57.694Z,1006.71
2019-02-21T00:13:57.713Z,1006.71
2019-02-21T00:14:57.665Z,1006.69
2019-02-21T00:15:57.644Z,1006.67
2019-02-21T00:16:57.646Z,1006.66
2019-02-21T00:17:57.635Z,1006.66
2019-02-21T00:18:57.614Z,1006.70
2019-02-21T00:19:57.664Z,1006.64
2019-02-21T00:20:57.597Z,1006.64
2019-02-21T00:21:57.644Z,1006.62
2019-02-21T00:22:57.581Z,1006.61
2019-02-21T00:23:57.562Z,1006.61
2019-02-21T00:24:57.633Z,1006.60
2019-02-21T00:25:57.568Z,1006.62
2019-02-21T00:26:57.530Z,1006.63
2019-02-21T00:27:57.509Z,1006.63
2019-02-21T00:28:57.515Z,1006.58
2019-02-21T00:29:57.561Z,1006.57
2019-02-21T00:30:57.499Z,1006.53
2019-02-21T00:31:57.532Z,1006.55
2019-02-21T00:32:57.564Z,1006.53
2019-02-21T00:33:57.455Z,1006.55
2019-02-21T00:35:00.327Z,1006.52
2019-02-21T00:35:57.426Z,1006.53
2019-02-21T00:36:57.426Z,1006.54
2019-02-21T00:37:57.438Z,1006.51
2019-02-21T00:38:57.407Z,1006.58
2019-02-21T00:39:57.404Z,1006.57
2019-02-21T00:40:57.386Z,1006.57
2019-02-21T00:41:57.395Z,1006.56
2019-02-21T00:42:57.352Z,1006.60
2019-02-21T00:43:57.511Z,1006.61
2019-02-21T00:44:57.332Z,1006.57
2019-02-21T00:45:57.389Z,1006.59
2019-02-21T00:46:57.310Z,1006.59
2019-02-21T00:47:57.301Z,1006.60
2019-02-21T00:48:57.390Z,1006.62
2019-02-21T00:49:57.303Z,1006.55
2019-02-21T00:50:57.273Z,1006.58
2019-02-21T00:51:57.257Z,1006.58
2019-02-21T00:52:57.251Z,1006.59
2019-02-21T00:53:57.227Z,1006.57
2019-02-21T00:54:57.226Z,1006.56
2019-02-21T00:55:57.292Z,1006.59
2019-02-21T00:56:57.204Z,1006.58
2019-02-21T00:57:57.183Z,1006.64
2019-02-21T00:58:57.180Z,1006.65
2019-02-21T00:59:57.169Z,1006.66
2019-02-21T01:00:57.185Z,1006.56
2019-02-21T01:01:57.222Z,1006.61
2019-02-21T01:02:57.134Z,1006.54
2019-02-21T01:03:57.133Z,1006.55
2019-02-21T01:04:57.121Z,1006.55
2019-02-21T01:05:57.136Z,1006.53
2019-02-21T01:06:57.104Z,1006.54
2019-02-21T01:07:57.139Z,1006.54
2019-02-21T01:08:57.128Z,1006.55
2019-02-21T01:09:57.053Z,1006.53
2019-02-21T01:10:57.053Z,1006.56
2019-02-21T01:11:57.041Z,1006.62
2019-02-21T01:12:57.039Z,1006.57
2019-02-21T01:13:57.066Z,1006.58
2019-02-21T01:14:57.077Z,1006.57
2019-02-21T01:15:56.992Z,1006.61
2019-02-21T01:16:57.000Z,1006.56
2019-02-21T01:17:56.967Z,1006.55
2019-02-21T01:18:56.958Z,1006.55
2019-02-21T01:19:56.993Z,1006.51
2019-02-21T01:20:56.934Z,1006.57
2019-02-21T01:21:56.919Z,1006.52
2019-02-21T01:22:56.918Z,1006.56
2019-02-21T01:23:56.903Z,1006.63
2019-02-21T01:24:56.926Z,1006.58
2019-02-21T01:25:56.940Z,1006.58
2019-02-21T01:26:56.879Z,1006.64
2019-02-21T01:27:56.876Z,1006.66
2019-02-21T01:28:56.853Z,1006.66
2019-02-21T01:29:56.900Z,1006.66
2019-02-21T01:30:57.358Z,1006.70
2019-02-21T01:31:56.861Z,1006.64
2019-02-21T01:32:56.817Z,1006.66
2019-02-21T01:33:56.809Z,1006.61
2019-02-21T01:34:56.786Z,1006.64
2019-02-21T01:35:56.839Z,1006.69
2019-02-21T01:36:56.757Z,1006.66
2019-02-21T01:37:56.798Z,1006.70
2019-02-21T01:38:56.760Z,1006.70
2019-02-21T01:39:56.727Z,1006.60
2019-02-21T01:40:56.716Z,1006.61
2019-02-21T01:41:56.714Z,1006.64
2019-02-21T01:42:56.691Z,1006.66
2019-02-21T01:43:56.732Z,1006.66
2019-02-21T01:44:56.666Z,1006.72
2019-02-21T01:45:56.665Z,1006.72
2019-02-21T01:46:56.658Z,1006.70
2019-02-21T01:47:56.664Z,1006.72
2019-02-21T01:48:56.629Z,1006.75
2019-02-21T01:49:56.661Z,1006.78
2019-02-21T01:50:56.629Z,1006.73
2019-02-21T01:51:56.595Z,1006.73
2019-02-21T01:52:56.595Z,1006.73
2019-02-21T01:53:56.569Z,1006.72
2019-02-21T01:54:56.585Z,1006.75
2019-02-21T01:55:56.592Z,1006.68
2019-02-21T01:56:56.547Z,1006.75
2019-02-21T01:57:56.530Z,1006.71
2019-02-21T01:58:56.514Z,1006.75
2019-02-21T01:59:56.504Z,1006.68
2019-02-21T02:01:07.603Z,1006.69
2019-02-21T02:01:57.583Z,1006.71
2019-02-21T02:02:56.480Z,1006.66
2019-02-21T02:03:56.472Z,1006.78
2019-02-21T02:04:56.447Z,1006.74
2019-02-21T02:05:56.433Z,1006.78
2019-02-21T02:06:56.429Z,1006.73
2019-02-21T02:07:56.453Z,1006.70
2019-02-21T02:08:56.436Z,1006.73
2019-02-21T02:09:56.413Z,1006.70
2019-02-21T02:10:56.389Z,1006.70
2019-02-21T02:11:56.386Z,1006.69
2019-02-21T02:12:56.361Z,1006.70
2019-02-21T02:13:56.503Z,1006.69
2019-02-21T02:14:56.382Z,1006.68
2019-02-21T02:15:56.328Z,1006.71
2019-02-21T02:16:56.316Z,1006.71
2019-02-21T02:17:56.306Z,1006.67
2019-02-21T02:18:56.300Z,1006.74
2019-02-21T02:19:56.310Z,1006.74
2019-02-21T02:20:56.274Z,1006.74
2019-02-21T02:21:56.270Z,1006.69
2019-02-21T02:22:56.247Z,1006.71
2019-02-21T02:23:56.261Z,1006.70
2019-02-21T02:24:56.327Z,1006.67
2019-02-21T02:25:56.308Z,1006.64
2019-02-21T02:26:56.205Z,1006.70
2019-02-21T02:27:56.195Z,1006.70
2019-02-21T02:28:56.182Z,1006.65
2019-02-21T02:29:56.205Z,1006.70
2019-02-21T02:30:56.165Z,1006.65
2019-02-21T02:31:56.190Z,1006.67
2019-02-21T02:32:56.148Z,1006.62
2019-02-21T02:33:56.144Z,1006.66
2019-02-21T02:34:56.133Z,1006.67
2019-02-21T02:35:56.109Z,1006.65
2019-02-21T02:36:56.097Z,1006.64
2019-02-21T02:37:56.133Z,1006.63
2019-02-21T02:38:56.072Z,1006.63
2019-02-21T02:39:56.092Z,1006.64
2019-02-21T02:40:56.069Z,1006.62
2019-02-21T02:41:56.083Z,1006.60
2019-02-21T02:42:56.067Z,1006.61
2019-02-21T02:43:56.050Z,1006.61
2019-02-21T02:44:56.034Z,1006.62
2019-02-21T02:45:56.015Z,1006.63
2019-02-21T02:46:55.983Z,1006.66
2019-02-21T02:47:55.996Z,1006.66
2019-02-21T02:48:55.971Z,1006.66
2019-02-21T02:49:56.011Z,1006.68
2019-02-21T02:50:55.944Z,1006.70
2019-02-21T02:51:55.935Z,1006.65
2019-02-21T02:52:55.939Z,1006.66
2019-02-21T02:53:55.915Z,1006.68
2019-02-21T02:54:55.971Z,1006.67
2019-02-21T02:55:55.947Z,1006.66
2019-02-21T02:56:55.881Z,1006.67
2019-02-21T02:57:55.858Z,1006.66
2019-02-21T02:58:55.917Z,1006.71
2019-02-21T02:59:55.890Z,1006.73
2019-02-21T03:00:55.838Z,1006.76
2019-02-21T03:01:55.848Z,1006.77
2019-02-21T03:02:55.818Z,1006.77
2019-02-21T03:03:55.797Z,1006.82
2019-02-21T03:04:55.794Z,1006.79
2019-02-21T03:05:55.784Z,1006.76
2019-02-21T03:06:55.760Z,1006.76
2019-02-21T03:07:55.807Z,1006.76
2019-02-21T03:08:55.744Z,1006.77
2019-02-21T03:09:55.741Z,1006.81
2019-02-21T03:10:55.751Z,1006.77
2019-02-21T03:11:55.715Z,1006.80
2019-02-21T03:12:55.740Z,1006.79
2019-02-21T03:13:55.727Z,1006.81
2019-02-21T03:14:55.676Z,1006.81
2019-02-21T03:15:55.673Z,1006.84
2019-02-21T03:16:55.654Z,1006.83
2019-02-21T03:17:55.640Z,1006.86
2019-02-21T03:18:55.660Z,1006.75
2019-02-21T03:19:55.672Z,1006.81
2019-02-21T03:20:55.623Z,1006.85
2019-02-21T03:21:55.629Z,1006.82
2019-02-21T03:22:55.618Z,1006.79
2019-02-21T03:23:55.575Z,1006.86
2019-02-21T03:24:55.575Z,1006.83
2019-02-21T03:25:55.631Z,1006.85
2019-02-21T03:26:55.553Z,1006.83
2019-02-21T03:27:55.556Z,1006.85
2019-02-21T03:28:55.554Z,1006.81
2019-02-21T03:29:55.519Z,1006.84
2019-02-21T03:30:55.550Z,1006.83
2019-02-21T03:31:56.251Z,1006.82
2019-02-21T03:32:55.494Z,1006.86
2019-02-21T03:33:55.491Z,1006.85
2019-02-21T03:34:55.462Z,1006.84
2019-02-21T03:35:55.462Z,1006.89
2019-02-21T03:36:55.458Z,1006.89
2019-02-21T03:37:55.460Z,1006.91
2019-02-21T03:38:55.466Z,1006.89
2019-02-21T03:39:55.411Z,1006.87
2019-02-21T03:40:55.392Z,1006.85
2019-02-21T03:41:55.378Z,1006.87
2019-02-21T03:42:55.373Z,1006.92
2019-02-21T03:43:55.455Z,1006.88
2019-02-21T03:44:55.379Z,1006.87
2019-02-21T03:45:55.338Z,1006.86
2019-02-21T03:46:55.331Z,1006.87
2019-02-21T03:47:55.331Z,1006.88
2019-02-21T03:48:55.320Z,1006.86
2019-02-21T03:49:55.323Z,1006.88
2019-02-21T03:50:55.284Z,1006.86
2019-02-21T03:51:55.270Z,1006.90
2019-02-21T03:52:55.274Z,1006.88
2019-02-21T03:53:55.255Z,1006.86
2019-02-21T03:54:55.234Z,1006.89
2019-02-21T03:55:55.344Z,1006.89
2019-02-21T03:56:55.211Z,1006.89
2019-02-21T03:57:55.205Z,1006.89
2019-02-21T03:58:55.184Z,1006.85
2019-02-21T03:59:55.199Z,1006.84
2019-02-21T04:00:55.175Z,1006.88
2019-02-21T04:02:04.721Z,1006.82
2019-02-21T04:02:56.162Z,1006.85
2019-02-21T04:03:55.136Z,1006.88
2019-02-21T04:04:55.129Z,1006.86
2019-02-21T04:05:55.122Z,1006.89
2019-02-21T04:06:55.137Z,1006.86
2019-02-21T04:07:55.125Z,1006.93
2019-02-21T04:08:55.108Z,1006.87
2019-02-21T04:09:55.105Z,1006.90
2019-02-21T04:10:55.074Z,1006.79
2019-02-21T04:11:55.057Z,1006.83
2019-02-21T04:12:55.042Z,1006.87
2019-02-21T04:13:55.126Z,1006.86
2019-02-21T04:14:55.033Z,1006.88
2019-02-21T04:15:55.005Z,1006.86
2019-02-21T04:16:55.002Z,1006.89
2019-02-21T04:17:55.000Z,1006.86
2019-02-21T04:18:54.973Z,1006.90
2019-02-21T04:19:54.992Z,1006.93
2019-02-21T04:20:54.967Z,1006.90
2019-02-21T04:21:54.950Z,1006.91
2019-02-21T04:22:54.928Z,1006.89
2019-02-21T04:23:54.921Z,1006.90
2019-02-21T04:24:55.112Z,1006.82
2019-02-21T04:25:54.949Z,1006.85
2019-02-21T04:26:54.905Z,1006.79
2019-02-21T04:27:54.881Z,1006.78
2019-02-21T04:28:54.879Z,1006.78
2019-02-21T04:29:54.856Z,1006.77
2019-02-21T04:30:54.847Z,1006.79
2019-02-21T04:31:54.883Z,1006.79
2019-02-21T04:32:54.815Z,1006.77
2019-02-21T04:33:54.818Z,1006.77
2019-02-21T04:34:54.792Z,1006.76
2019-02-21T04:35:54.782Z,1006.74
2019-02-21T04:36:54.774Z,1006.75
2019-02-21T04:37:54.797Z,1006.78
2019-02-21T04:38:54.751Z,1006.77
2019-02-21T04:39:54.745Z,1006.78
2019-02-21T04:40:54.733Z,1006.82
2019-02-21T04:41:54.792Z,1006.82
2019-02-21T04:42:54.720Z,1006.78
2019-02-21T04:43:54.772Z,1006.73
2019-02-21T04:44:54.831Z,1006.78
2019-02-21T04:45:54.773Z,1006.79
2019-02-21T04:46:54.696Z,1006.76
2019-02-21T04:47:54.662Z,1006.75
2019-02-21T04:48:54.641Z,1006.75
2019-02-21T04:49:54.676Z,1006.73
2019-02-21T04:50:54.668Z,1006.71
2019-02-21T04:51:54.609Z,1006.71
2019-02-21T04:52:54.605Z,1006.67
2019-02-21T04:53:54.589Z,1006.68
2019-02-21T04:54:54.641Z,1006.64
2019-02-21T04:55:54.605Z,1006.67
2019-02-21T04:56:54.562Z,1006.68
2019-02-21T04:57:54.542Z,1006.69
2019-02-21T04:58:54.602Z,1006.67
2019-02-21T04:59:54.537Z,1006.63
2019-02-21T05:00:54.504Z,1006.59
2019-02-21T05:01:54.604Z,1006.61
2019-02-21T05:02:54.494Z,1006.67
2019-02-21T05:03:54.471Z,1006.65
2019-02-21T05:04:54.482Z,1006.65
2019-02-21T05:05:54.536Z,1006.63
2019-02-21T05:06:54.439Z,1006.66
2019-02-21T05:07:54.471Z,1006.63
2019-02-21T05:08:54.417Z,1006.57
2019-02-21T05:09:58.136Z,1006.59
2019-02-21T05:10:54.403Z,1006.70
2019-02-21T05:11:54.422Z,1006.62
2019-02-21T05:12:54.373Z,1006.70
2019-02-21T05:13:54.432Z,1006.72
2019-02-21T05:14:54.354Z,1006.66
2019-02-21T05:15:54.341Z,1006.65
2019-02-21T05:16:54.355Z,1006.61
2019-02-21T05:17:54.353Z,1006.59
2019-02-21T05:18:54.384Z,1006.54
2019-02-21T05:19:54.335Z,1006.61
2019-02-21T05:20:54.285Z,1006.59
2019-02-21T05:21:54.285Z,1006.55
2019-02-21T05:22:54.272Z,1006.57
2019-02-21T05:23:54.268Z,1006.53
2019-02-21T05:24:54.242Z,1006.53
2019-02-21T05:25:54.264Z,1006.54
2019-02-21T05:26:54.217Z,1006.50
2019-02-21T05:27:54.218Z,1006.56
2019-02-21T05:28:54.201Z,1006.55
2019-02-21T05:29:54.193Z,1006.59
2019-02-21T05:30:54.176Z,1006.54
2019-02-21T05:31:54.353Z,1006.52
2019-02-21T05:32:54.149Z,1006.52
2019-02-21T05:33:54.143Z,1006.52
2019-02-21T05:34:54.133Z,1006.52
2019-02-21T05:35:54.131Z,1006.50
2019-02-21T05:36:54.111Z,1006.53
2019-02-21T05:37:54.160Z,1006.54
2019-02-21T05:38:54.086Z,1006.49
2019-02-21T05:39:54.077Z,1006.53
2019-02-21T05:40:54.073Z,1006.53
2019-02-21T05:41:54.055Z,1006.55
2019-02-21T05:42:54.101Z,1006.57
2019-02-21T05:43:54.118Z,1006.56
2019-02-21T05:44:54.023Z,1006.58
2019-02-21T05:45:54.011Z,1006.55
2019-02-21T05:46:53.996Z,1006.54
2019-02-21T05:47:53.986Z,1006.56
2019-02-21T05:48:53.980Z,1006.61
2019-02-21T05:49:54.012Z,1006.57
2019-02-21T05:50:53.959Z,1006.58
2019-02-21T05:51:54.019Z,1006.60
2019-02-21T05:52:53.937Z,1006.61
2019-02-21T05:53:53.936Z,1006.58
2019-02-21T05:54:53.983Z,1006.58
2019-02-21T05:55:53.954Z,1006.64
2019-02-21T05:56:53.892Z,1006.63
2019-02-21T05:57:53.887Z,1006.64
2019-02-21T05:58:53.870Z,1006.69
2019-02-21T05:59:53.905Z,1006.67
2019-02-21T06:00:53.848Z,1006.69
2019-02-21T06:01:53.902Z,1006.74
2019-02-21T06:02:53.898Z,1006.71
2019-02-21T06:03:53.814Z,1006.75
2019-02-21T06:04:53.802Z,1006.76
2019-02-21T06:05:53.824Z,1006.73
2019-02-21T06:06:53.786Z,1006.73
2019-02-21T06:07:53.817Z,1006.71
2019-02-21T06:08:53.758Z,1006.68
2019-02-21T06:09:53.746Z,1006.74
2019-02-21T06:10:53.736Z,1006.72
2019-02-21T06:11:53.824Z,1006.67
2019-02-21T06:12:53.722Z,1006.70
2019-02-21T06:13:53.745Z,1006.68
2019-02-21T06:14:53.694Z,1006.69
2019-02-21T06:15:53.687Z,1006.69
2019-02-21T06:16:53.668Z,1006.67
2019-02-21T06:17:53.673Z,1006.71
2019-02-21T06:18:53.645Z,1006.73
2019-02-21T06:19:53.691Z,1006.69
2019-02-21T06:20:53.637Z,1006.72
2019-02-21T06:21:53.621Z,1006.74
2019-02-21T06:22:53.647Z,1006.72
2019-02-21T06:23:53.598Z,1006.77
2019-02-21T06:24:53.587Z,1006.74
2019-02-21T06:25:58.010Z,1006.73
2019-02-21T06:26:53.565Z,1006.77
2019-02-21T06:27:53.570Z,1006.78
2019-02-21T06:28:53.864Z,1006.76
2019-02-21T06:29:53.533Z,1006.77
2019-02-21T06:30:53.519Z,1006.80
2019-02-21T06:31:53.804Z,1006.76
2019-02-21T06:33:04.166Z,1006.80
2019-02-21T06:33:54.484Z,1006.82
2019-02-21T06:34:53.476Z,1006.81
2019-02-21T06:35:53.465Z,1006.83
2019-02-21T06:36:53.450Z,1006.86
2019-02-21T06:37:53.486Z,1006.83
2019-02-21T06:38:53.424Z,1006.85
2019-02-21T06:39:53.459Z,1006.81
2019-02-21T06:40:53.408Z,1006.82
2019-02-21T06:41:59.572Z,1006.83
2019-02-21T06:42:54.433Z,1006.82
2019-02-21T06:43:53.394Z,1006.81
2019-02-21T06:44:53.358Z,1006.83
2019-02-21T06:45:53.358Z,1006.81
2019-02-21T06:46:53.344Z,1006.82
2019-02-21T06:47:53.449Z,1006.81
2019-02-21T06:48:53.364Z,1006.83
2019-02-21T06:49:53.314Z,1006.85
2019-02-21T06:50:53.314Z,1006.86
2019-02-21T06:51:53.280Z,1006.87
2019-02-21T06:52:53.273Z,1006.86
2019-02-21T06:53:53.350Z,1006.88
2019-02-21T06:54:53.289Z,1006.87
2019-02-21T06:55:53.239Z,1006.94
2019-02-21T06:56:53.227Z,1006.94
2019-02-21T06:57:53.230Z,1006.94
2019-02-21T06:58:53.209Z,1006.93
2019-02-21T06:59:53.194Z,1006.96
2019-02-21T07:00:53.254Z,1006.95
2019-02-21T07:01:53.169Z,1006.95
2019-02-21T07:02:54.355Z,1006.90
2019-02-21T07:03:53.147Z,1006.94
2019-02-21T07:04:53.143Z,1006.97
2019-02-21T07:05:53.130Z,1007.01
2019-02-21T07:06:53.153Z,1007.01
2019-02-21T07:07:53.157Z,1007.03
2019-02-21T07:08:54.193Z,1006.99
2019-02-21T07:09:53.082Z,1007.01
2019-02-21T07:10:53.084Z,1007.07
2019-02-21T07:11:53.063Z,1007.08
2019-02-21T07:12:53.081Z,1007.13
2019-02-21T07:13:53.082Z,1007.08
2019-02-21T07:14:53.056Z,1007.10
2019-02-21T07:15:53.014Z,1007.11
2019-02-21T07:16:53.058Z,1007.08
2019-02-21T07:17:52.992Z,1007.12
2019-02-21T07:18:53.040Z,1007.13
2019-02-21T07:19:53.001Z,1007.18
2019-02-21T07:20:52.969Z,1007.14
2019-02-21T07:21:52.957Z,1007.17
2019-02-21T07:22:52.959Z,1007.14
2019-02-21T07:23:52.929Z,1007.14
2019-02-21T07:24:54.077Z,1007.16
2019-02-21T07:25:52.910Z,1007.18
2019-02-21T07:26:52.904Z,1007.20
2019-02-21T07:27:52.887Z,1007.18
2019-02-21T07:28:52.874Z,1007.15
2019-02-21T07:29:52.881Z,1007.18
2019-02-21T07:30:52.951Z,1007.15
2019-02-21T07:31:52.841Z,1007.20
2019-02-21T07:32:52.829Z,1007.23
2019-02-21T07:33:52.835Z,1007.22
2019-02-21T07:34:52.811Z,1007.20
2019-02-21T07:35:52.807Z,1007.21
2019-02-21T07:36:52.902Z,1007.21
2019-02-21T07:37:52.786Z,1007.22
2019-02-21T07:39:03.526Z,1007.24
2019-02-21T07:39:53.757Z,1007.28
2019-02-21T07:40:52.789Z,1007.26
2019-02-21T07:41:52.752Z,1007.32
2019-02-21T07:42:52.776Z,1007.33
2019-02-21T07:43:52.720Z,1007.28
2019-02-21T07:44:52.748Z,1007.31
2019-02-21T07:45:52.755Z,1007.33
2019-02-21T07:46:53.503Z,1007.38
2019-02-21T07:47:52.660Z,1007.38
2019-02-21T07:48:52.724Z,1007.37
2019-02-21T07:49:52.648Z,1007.34
2019-02-21T07:50:52.631Z,1007.42
2019-02-21T07:51:52.635Z,1007.43
2019-02-21T07:53:01.959Z,1007.45
2019-02-21T07:53:53.648Z,1007.44
2019-02-21T07:55:01.275Z,1007.46
2019-02-21T07:55:55.763Z,1007.42
2019-02-21T07:56:52.567Z,1007.49
2019-02-21T07:57:52.547Z,1007.45
2019-02-21T07:58:52.540Z,1007.51
2019-02-21T07:59:52.614Z,1007.53
2019-02-21T08:00:54.090Z,1007.52
2019-02-21T08:01:52.507Z,1007.47
2019-02-21T08:02:52.494Z,1007.54
2019-02-21T08:03:52.487Z,1007.56
2019-02-21T08:04:52.472Z,1007.56
2019-02-21T08:05:52.625Z,1007.61
2019-02-21T08:06:55.395Z,1007.55
2019-02-21T08:07:52.460Z,1007.55
2019-02-21T08:08:52.447Z,1007.58
2019-02-21T08:09:52.418Z,1007.57
2019-02-21T08:10:52.407Z,1007.56
2019-02-21T08:11:52.443Z,1007.56
2019-02-21T08:12:53.704Z,1007.55
2019-02-21T08:13:52.542Z,1007.54
2019-02-21T08:14:52.453Z,1007.59
2019-02-21T08:15:52.368Z,1007.57
2019-02-21T08:16:52.389Z,1007.57
2019-02-21T08:17:52.394Z,1007.62
2019-02-21T08:18:52.331Z,1007.56
2019-02-21T08:19:52.305Z,1007.64
2019-02-21T08:20:52.329Z,1007.67
2019-02-21T08:21:52.365Z,1007.65
2019-02-21T08:22:52.308Z,1007.68
2019-02-21T08:23:52.307Z,1007.66
2019-02-21T08:24:52.247Z,1007.70
2019-02-21T08:25:52.285Z,1007.65
2019-02-21T08:26:52.225Z,1007.66
2019-02-21T08:27:52.219Z,1007.60
2019-02-21T08:28:52.204Z,1007.61
2019-02-21T08:29:52.247Z,1007.60
2019-02-21T08:30:52.184Z,1007.55
2019-02-21T08:31:52.211Z,1007.61
2019-02-21T08:32:52.161Z,1007.64
2019-02-21T08:33:58.539Z,1007.62
2019-02-21T08:34:53.165Z,1007.60
2019-02-21T08:35:54.140Z,1007.57
2019-02-21T08:36:52.122Z,1007.60
2019-02-21T08:37:52.141Z,1007.62
2019-02-21T08:38:52.096Z,1007.63
2019-02-21T08:39:52.080Z,1007.63
2019-02-21T08:40:53.344Z,1007.58
2019-02-21T08:41:52.061Z,1007.59
2019-02-21T08:42:52.045Z,1007.59
2019-02-21T08:43:52.095Z,1007.57
2019-02-21T08:44:52.026Z,1007.59
2019-02-21T08:45:52.012Z,1007.58
2019-02-21T08:46:53.534Z,1007.69
2019-02-21T08:47:51.991Z,1007.62
2019-02-21T08:48:51.984Z,1007.67
2019-02-21T08:49:51.990Z,1007.69
2019-02-21T08:50:51.982Z,1007.70
2019-02-21T08:51:51.959Z,1007.74
2019-02-21T08:52:51.980Z,1007.70
2019-02-21T08:53:51.924Z,1007.69
2019-02-21T08:54:59.789Z,1007.66
2019-02-21T08:55:52.950Z,1007.69
2019-02-21T08:56:51.891Z,1007.68
2019-02-21T08:57:51.879Z,1007.69
2019-02-21T08:58:51.925Z,1007.64
2019-02-21T08:59:51.857Z,1007.70
2019-02-21T09:00:54.292Z,1007.74
2019-02-21T09:01:51.868Z,1007.74
2019-02-21T09:02:51.831Z,1007.76
2019-02-21T09:03:51.834Z,1007.82
2019-02-21T09:04:51.835Z,1007.84
2019-02-21T09:05:51.837Z,1007.83
2019-02-21T09:06:51.781Z,1007.81
2019-02-21T09:07:51.827Z,1007.83
2019-02-21T09:08:51.762Z,1007.84
2019-02-21T09:09:51.747Z,1007.82
2019-02-21T09:10:51.787Z,1007.84
2019-02-21T09:11:53.779Z,1007.74
2019-02-21T09:12:51.714Z,1007.80
2019-02-21T09:13:51.741Z,1007.84
2019-02-21T09:14:51.692Z,1007.87
2019-02-21T09:15:51.682Z,1007.83
2019-02-21T09:16:51.707Z,1007.87
2019-02-21T09:17:53.979Z,1007.87
2019-02-21T09:18:51.652Z,1007.85
2019-02-21T09:19:51.699Z,1007.83
2019-02-21T09:20:51.626Z,1007.81
2019-02-21T09:21:53.563Z,1007.80
2019-02-21T09:22:51.635Z,1007.79
2019-02-21T09:23:51.596Z,1007.83
2019-02-21T09:24:51.585Z,1007.81
2019-02-21T09:25:51.601Z,1007.76
2019-02-21T09:26:51.573Z,1007.76
2019-02-21T09:27:51.549Z,1007.78
2019-02-21T09:28:51.591Z,1007.80
2019-02-21T09:29:51.525Z,1007.81
2019-02-21T09:30:51.542Z,1007.82
2019-02-21T09:31:51.567Z,1007.85
2019-02-21T09:32:51.505Z,1007.83
2019-02-21T09:33:51.513Z,1007.80
2019-02-21T09:34:51.510Z,1007.83
2019-02-21T09:35:51.458Z,1007.82
2019-02-21T09:36:51.448Z,1007.87
2019-02-21T09:37:51.462Z,1007.85
2019-02-21T09:38:51.439Z,1007.85
2019-02-21T09:39:51.445Z,1007.87
2019-02-21T09:40:51.432Z,1007.84
2019-02-21T09:41:51.391Z,1007.83
2019-02-21T09:42:51.388Z,1007.81
2019-02-21T09:43:51.372Z,1007.80
2019-02-21T09:44:51.376Z,1007.85
2019-02-21T09:45:51.359Z,1007.83
2019-02-21T09:46:51.528Z,1007.83
2019-02-21T09:47:51.327Z,1007.83
2019-02-21T09:48:51.313Z,1007.74
2019-02-21T09:49:51.303Z,1007.80
2019-02-21T09:50:51.292Z,1007.79
2019-02-21T09:51:51.289Z,1007.74
2019-02-21T09:52:51.317Z,1007.77
2019-02-21T09:53:51.258Z,1007.74
2019-02-21T09:54:51.260Z,1007.76
2019-02-21T09:55:51.234Z,1007.83
2019-02-21T09:56:53.067Z,1007.85
2019-02-21T09:57:51.246Z,1007.88
2019-02-21T09:58:51.241Z,1007.97
2019-02-21T09:59:51.198Z,1007.99
2019-02-21T10:00:51.177Z,1008.07
2019-02-21T10:01:51.169Z,1008.08
2019-02-21T10:02:54.333Z,1008.05
2019-02-21T10:03:52.184Z,1008.07
2019-02-21T10:04:51.134Z,1008.05
2019-02-21T10:05:51.150Z,1008.02
2019-02-21T10:06:51.110Z,1008.13
2019-02-21T10:07:51.103Z,1008.08
2019-02-21T10:08:51.111Z,1008.06
2019-02-21T10:09:51.124Z,1008.08
2019-02-21T10:10:51.066Z,1008.14
2019-02-21T10:11:51.061Z,1008.15
2019-02-21T10:12:51.045Z,1008.16
2019-02-21T10:13:51.034Z,1008.17
2019-02-21T10:14:51.049Z,1008.23
2019-02-21T10:15:51.053Z,1008.20
2019-02-21T10:16:51.007Z,1008.24
2019-02-21T10:17:51.078Z,1008.29
2019-02-21T10:18:50.981Z,1008.35
2019-02-21T10:19:50.964Z,1008.31
2019-02-21T10:20:51.000Z,1008.27
2019-02-21T10:21:50.990Z,1008.36
2019-02-21T10:22:50.931Z,1008.32
2019-02-21T10:23:50.920Z,1008.34
2019-02-21T10:24:50.928Z,1008.34
2019-02-21T10:25:50.896Z,1008.34
2019-02-21T10:26:50.919Z,1008.35
2019-02-21T10:27:50.909Z,1008.33
2019-02-21T10:28:50.867Z,1008.42
2019-02-21T10:29:50.858Z,1008.36
2019-02-21T10:30:50.844Z,1008.33
2019-02-21T10:31:50.861Z,1008.34
2019-02-21T10:32:50.877Z,1008.27
2019-02-21T10:33:50.852Z,1008.35
2019-02-21T10:34:52.970Z,1008.32
2019-02-21T10:35:50.785Z,1008.31
2019-02-21T10:36:50.784Z,1008.37
2019-02-21T10:37:50.770Z,1008.30
2019-02-21T10:38:50.756Z,1008.33
2019-02-21T10:39:50.819Z,1008.31
2019-02-21T10:40:50.732Z,1008.35
2019-02-21T10:41:50.717Z,1008.27
2019-02-21T10:42:50.707Z,1008.34
2019-02-21T10:43:50.701Z,1008.33
2019-02-21T10:44:50.685Z,1008.24
2019-02-21T10:45:50.771Z,1008.20
2019-02-21T10:46:50.661Z,1008.11
2019-02-21T10:47:50.652Z,1008.10
2019-02-21T10:48:50.675Z,1008.07
2019-02-21T10:49:50.632Z,1008.04
2019-02-21T10:50:50.620Z,1008.02
2019-02-21T10:51:50.689Z,1007.95
2019-02-21T10:52:50.608Z,1007.91
2019-02-21T10:53:50.589Z,1007.91
2019-02-21T10:54:50.574Z,1007.90
2019-02-21T10:55:50.566Z,1007.91
2019-02-21T10:56:50.555Z,1007.89
2019-02-21T10:57:50.598Z,1007.94
2019-02-21T10:58:50.557Z,1007.91
2019-02-21T10:59:50.519Z,1007.92
2019-02-21T11:00:50.509Z,1008.00
2019-02-21T11:01:50.502Z,1008.01
2019-02-21T11:02:50.533Z,1008.03
2019-02-21T11:03:50.519Z,1008.07
2019-02-21T11:04:54.881Z,1008.13
2019-02-21T11:05:50.453Z,1008.10
2019-02-21T11:06:50.452Z,1008.07
2019-02-21T11:07:50.440Z,1008.05
2019-02-21T11:08:50.535Z,1008.01
2019-02-21T11:09:50.557Z,1007.96
2019-02-21T11:10:50.401Z,1007.89
2019-02-21T11:11:50.392Z,1007.95
2019-02-21T11:12:50.396Z,1007.94
2019-02-21T11:13:50.365Z,1008.02
2019-02-21T11:14:50.352Z,1008.00
2019-02-21T11:15:50.462Z,1007.94
2019-02-21T11:16:50.335Z,1007.92
2019-02-21T11:17:50.405Z,1007.96
2019-02-21T11:18:50.311Z,1007.96
2019-02-21T11:19:50.306Z,1007.93
2019-02-21T11:20:50.322Z,1007.88
2019-02-21T11:21:50.304Z,1007.90
2019-02-21T11:22:50.315Z,1007.84
2019-02-21T11:23:50.254Z,1007.86
2019-02-21T11:24:50.242Z,1007.90
2019-02-21T11:25:50.231Z,1007.91
2019-02-21T11:26:50.268Z,1007.92
2019-02-21T11:27:50.265Z,1007.92
2019-02-21T11:28:50.196Z,1007.88
2019-02-21T11:29:50.203Z,1007.82
2019-02-21T11:30:50.178Z,1007.82
2019-02-21T11:31:50.165Z,1007.87
2019-02-21T11:32:50.311Z,1007.86
2019-02-21T11:33:50.176Z,1007.86
2019-02-21T11:34:50.136Z,1007.84
2019-02-21T11:35:50.123Z,1007.88
2019-02-21T11:36:50.116Z,1007.90
2019-02-21T11:37:50.101Z,1007.86
2019-02-21T11:38:50.092Z,1007.87
2019-02-21T11:39:50.118Z,1007.93
2019-02-21T11:40:50.103Z,1007.90
2019-02-21T11:41:50.083Z,1007.81
2019-02-21T11:42:50.041Z,1007.86
2019-02-21T11:43:50.035Z,1007.83
2019-02-21T11:44:50.030Z,1007.82
2019-02-21T11:45:53.869Z,1007.80
2019-02-21T11:46:51.094Z,1007.82
2019-02-21T11:47:50.002Z,1007.91
2019-02-21T11:48:49.983Z,1007.84
2019-02-21T11:49:49.979Z,1007.87
2019-02-21T11:50:49.957Z,1007.84
2019-02-21T11:51:49.993Z,1007.86
2019-02-21T11:52:49.937Z,1007.81
2019-02-21T11:53:49.928Z,1007.79
2019-02-21T11:54:49.961Z,1007.90
2019-02-21T11:55:49.952Z,1007.84
2019-02-21T11:56:49.888Z,1007.83
2019-02-21T11:57:49.953Z,1007.80
2019-02-21T11:58:49.867Z,1007.69
2019-02-21T11:59:49.853Z,1007.77
2019-02-21T12:00:49.841Z,1007.74
2019-02-21T12:01:49.844Z,1007.75
2019-02-21T12:02:49.822Z,1007.72
2019-02-21T12:03:50.136Z,1007.67
2019-02-21T12:04:49.796Z,1007.66
2019-02-21T12:05:49.790Z,1007.66